createdAt,value
2023-03-11T00:00:27.099Z,16.61
2023-03-11T00:02:56.507Z,16.56
2023-03-11T00:05:23.009Z,16.48
2023-03-11T00:07:49.369Z,16.42
2023-03-11T00:10:15.639Z,16.36
2023-03-11T00:12:41.875Z,16.30
2023-03-11T00:15:08.108Z,16.25
2023-03-11T00:17:34.314Z,16.20
2023-03-11T00:20:00.751Z,16.15
2023-03-11T00:22:26.969Z,16.11
2023-03-11T00:24:53.434Z,16.06
2023-03-11T00:27:19.760Z,16.00
2023-03-11T00:29:46.072Z,15.95
2023-03-11T00:32:12.324Z,15.90
2023-03-11T00:34:38.572Z,15.86
2023-03-11T00:37:04.850Z,15.82
2023-03-11T00:39:31.040Z,15.77
2023-03-11T00:41:58.090Z,15.74
2023-03-11T00:44:24.313Z,15.71
2023-03-11T00:46:50.529Z,15.64
2023-03-11T00:49:16.895Z,15.60
2023-03-11T00:51:43.090Z,15.56
2023-03-11T00:54:09.295Z,15.52
2023-03-11T00:56:35.535Z,15.49
2023-03-11T00:59:01.737Z,15.35
2023-03-11T01:01:28.091Z,15.42
2023-03-11T01:03:54.341Z,15.38
2023-03-11T01:06:20.706Z,15.35
2023-03-11T01:08:46.921Z,15.30
2023-03-11T01:11:13.184Z,15.27
2023-03-11T01:13:39.423Z,15.22
2023-03-11T01:16:05.759Z,15.19
2023-03-11T01:18:31.970Z,15.17
2023-03-11T01:20:58.383Z,15.13
2023-03-11T01:23:26.666Z,15.11
2023-03-11T01:25:52.884Z,15.08
2023-03-11T01:28:19.111Z,15.05
2023-03-11T01:30:45.494Z,14.99
2023-03-11T01:33:11.782Z,14.97
2023-03-11T01:35:38.193Z,14.93
2023-03-11T01:38:04.636Z,14.89
2023-03-11T01:40:30.858Z,14.84
2023-03-11T01:42:57.205Z,14.82
2023-03-11T01:45:23.454Z,14.77
2023-03-11T01:47:49.661Z,14.75
2023-03-11T01:50:15.889Z,14.74
2023-03-11T01:52:42.135Z,14.70
2023-03-11T01:55:08.402Z,14.66
2023-03-11T01:57:34.623Z,14.63
2023-03-11T02:00:02.367Z,14.60
2023-03-11T02:02:28.707Z,14.57
2023-03-11T02:04:54.979Z,14.52
2023-03-11T02:07:21.203Z,14.50
2023-03-11T02:09:47.457Z,14.46
2023-03-11T02:12:13.857Z,14.44
2023-03-11T02:14:40.122Z,14.40
2023-03-11T02:17:06.354Z,14.37
2023-03-11T02:19:32.611Z,14.33
2023-03-11T02:21:58.823Z,14.30
2023-03-11T02:24:25.057Z,14.28
2023-03-11T02:26:51.465Z,14.26
2023-03-11T02:29:17.831Z,14.23
2023-03-11T02:31:44.166Z,14.20
2023-03-11T02:34:10.453Z,14.17
2023-03-11T02:36:36.686Z,14.15
2023-03-11T02:39:02.945Z,14.11
2023-03-11T02:41:29.194Z,14.10
2023-03-11T02:43:55.584Z,14.07
2023-03-11T02:46:21.961Z,14.04
2023-03-11T02:48:48.243Z,14.01
2023-03-11T02:51:14.559Z,13.99
2023-03-11T02:53:40.821Z,13.95
2023-03-11T02:56:07.046Z,13.92
2023-03-11T02:58:34.590Z,13.89
2023-03-11T03:01:01.074Z,13.85
2023-03-11T03:03:27.455Z,13.83
2023-03-11T03:05:53.791Z,13.81
2023-03-11T03:08:20.054Z,13.78
2023-03-11T03:10:46.401Z,13.77
2023-03-11T03:13:12.699Z,13.75
2023-03-11T03:15:39.009Z,13.73
2023-03-11T03:18:05.380Z,13.71
2023-03-11T03:20:31.705Z,13.69
2023-03-11T03:22:57.985Z,13.67
2023-03-11T03:25:24.299Z,13.66
2023-03-11T03:27:50.538Z,13.63
2023-03-11T03:30:16.787Z,13.60
2023-03-11T03:32:43.082Z,13.57
2023-03-11T03:35:09.300Z,13.55
2023-03-11T03:37:35.565Z,13.52
2023-03-11T03:40:02.111Z,13.50
2023-03-11T03:42:28.369Z,13.48
2023-03-11T03:44:54.588Z,13.45
2023-03-11T03:47:21.910Z,13.42
2023-03-11T03:49:48.152Z,13.39
2023-03-11T03:52:14.379Z,13.37
2023-03-11T03:54:40.578Z,13.33
2023-03-11T03:57:06.811Z,13.31
2023-03-11T03:59:35.167Z,13.30
2023-03-11T04:02:01.410Z,13.27
2023-03-11T04:04:27.696Z,13.25
2023-03-11T04:06:53.914Z,13.23
2023-03-11T04:09:20.096Z,13.21
2023-03-11T04:11:46.281Z,13.18
2023-03-11T04:14:12.526Z,13.16
2023-03-11T04:16:38.911Z,13.13
2023-03-11T04:19:05.122Z,13.12
2023-03-11T04:21:31.315Z,13.10
2023-03-11T04:23:57.611Z,13.07
2023-03-11T04:26:24.083Z,13.05
2023-03-11T04:28:50.358Z,13.02
2023-03-11T04:31:16.728Z,13.00
2023-03-11T04:33:43.118Z,12.98
2023-03-11T04:36:09.499Z,12.96
2023-03-11T04:38:35.845Z,12.95
2023-03-11T04:41:02.113Z,12.94
2023-03-11T04:43:28.423Z,12.92
2023-03-11T04:45:55.249Z,12.91
2023-03-11T04:48:21.583Z,12.89
2023-03-11T04:50:48.018Z,12.88
2023-03-11T04:53:14.294Z,12.86
2023-03-11T04:55:40.634Z,12.84
2023-03-11T04:58:07.025Z,12.83
2023-03-11T05:00:33.393Z,12.82
2023-03-11T05:02:59.717Z,12.79
2023-03-11T05:05:26.452Z,12.78
2023-03-11T05:07:55.998Z,12.76
2023-03-11T05:10:23.173Z,12.73
2023-03-11T05:12:51.856Z,12.72
2023-03-11T05:15:18.061Z,12.70
2023-03-11T05:17:44.342Z,12.69
2023-03-11T05:20:10.570Z,12.68
2023-03-11T05:22:36.810Z,12.66
2023-03-11T05:25:02.996Z,12.64
2023-03-11T05:27:29.195Z,12.62
2023-03-11T05:29:55.449Z,12.60
2023-03-11T05:32:21.687Z,12.58
2023-03-11T05:34:47.940Z,12.55
2023-03-11T05:37:14.201Z,12.53
2023-03-11T05:39:40.627Z,12.51
2023-03-11T05:42:07.055Z,12.48
2023-03-11T05:44:33.282Z,12.47
2023-03-11T05:46:59.909Z,12.44
2023-03-11T05:49:26.123Z,12.41
2023-03-11T05:51:52.383Z,12.40
2023-03-11T05:54:18.634Z,12.37
2023-03-11T05:56:44.831Z,12.36
2023-03-11T05:59:11.088Z,12.34
2023-03-11T06:01:37.320Z,12.33
2023-03-11T06:04:03.712Z,12.32
2023-03-11T06:06:30.110Z,12.31
2023-03-11T06:08:56.304Z,12.31
2023-03-11T06:11:22.535Z,12.30
2023-03-11T06:13:48.770Z,12.31
2023-03-11T06:16:15.103Z,12.30
2023-03-11T06:18:41.344Z,12.29
2023-03-11T06:21:07.617Z,12.28
2023-03-11T06:23:33.840Z,12.29
2023-03-11T06:26:00.168Z,12.28
2023-03-11T06:28:26.491Z,12.28
2023-03-11T06:30:53.000Z,12.29
2023-03-11T06:33:19.198Z,12.29
2023-03-11T06:35:45.454Z,12.29
2023-03-11T06:38:14.216Z,12.27
2023-03-11T06:40:40.471Z,12.27
2023-03-11T06:43:06.687Z,12.27
2023-03-11T06:45:33.115Z,12.29
2023-03-11T06:47:59.357Z,12.31
2023-03-11T06:50:25.565Z,12.40
2023-03-11T06:52:51.779Z,12.40
2023-03-11T06:55:17.981Z,12.37
2023-03-11T06:57:44.231Z,12.37
2023-03-11T07:00:10.527Z,12.37
2023-03-11T07:02:36.835Z,12.36
2023-03-11T07:05:03.121Z,12.36
2023-03-11T07:07:29.449Z,12.36
2023-03-11T07:09:55.980Z,12.36
2023-03-11T07:12:22.877Z,12.36
2023-03-11T07:14:49.503Z,12.36
2023-03-11T07:17:15.815Z,12.36
2023-03-11T07:19:42.186Z,12.37
2023-03-11T07:22:08.470Z,12.37
2023-03-11T07:24:35.325Z,12.37
2023-03-11T07:27:01.643Z,12.41
2023-03-11T07:29:28.012Z,12.54
2023-03-11T07:31:54.530Z,12.71
2023-03-11T07:34:20.823Z,13.19
2023-03-11T07:36:47.311Z,13.72
2023-03-11T07:39:14.106Z,14.11
2023-03-11T07:41:40.379Z,14.48
2023-03-11T07:44:08.090Z,14.81
2023-03-11T07:46:35.913Z,15.04
2023-03-11T07:49:02.234Z,15.18
2023-03-11T07:51:28.726Z,15.25
2023-03-11T07:53:55.145Z,15.31
2023-03-11T07:56:21.490Z,15.37
2023-03-11T07:58:47.862Z,15.44
2023-03-11T08:01:14.229Z,15.52
2023-03-11T08:03:40.544Z,15.57
2023-03-11T08:06:06.878Z,15.60
2023-03-11T08:08:33.280Z,15.66
2023-03-11T08:10:59.938Z,15.72
2023-03-11T08:13:28.763Z,15.77
2023-03-11T08:15:55.306Z,15.85
2023-03-11T08:18:21.680Z,15.94
2023-03-11T08:20:48.043Z,16.04
2023-03-11T08:23:14.546Z,16.11
2023-03-11T08:25:40.873Z,16.16
2023-03-11T08:28:07.375Z,16.21
2023-03-11T08:30:34.316Z,16.25
2023-03-11T08:33:00.705Z,16.28
2023-03-11T08:35:27.089Z,16.30
2023-03-11T08:37:53.651Z,16.33
2023-03-11T08:40:19.980Z,16.35
2023-03-11T08:42:48.778Z,16.37
2023-03-11T08:45:15.228Z,16.39
2023-03-11T08:47:41.513Z,16.42
2023-03-11T08:50:07.844Z,16.44
2023-03-11T08:52:34.257Z,16.46
2023-03-11T08:55:00.584Z,16.47
2023-03-11T08:57:28.949Z,16.48
2023-03-11T08:59:58.092Z,16.49
2023-03-11T09:02:24.459Z,16.49
2023-03-11T09:04:50.892Z,16.55
2023-03-11T09:07:17.142Z,16.65
2023-03-11T09:09:43.605Z,16.77
2023-03-11T09:12:09.924Z,16.89
2023-03-11T09:14:37.601Z,16.99
2023-03-11T09:17:04.902Z,17.12
2023-03-11T09:19:31.187Z,17.28
2023-03-11T09:21:57.602Z,17.45
2023-03-11T09:24:24.052Z,17.64
2023-03-11T09:26:50.387Z,17.82
2023-03-11T09:29:16.708Z,18.01
2023-03-11T09:31:43.042Z,18.26
2023-03-11T09:34:09.388Z,18.45
2023-03-11T09:36:35.602Z,18.64
2023-03-11T09:39:01.950Z,18.75
2023-03-11T09:41:28.256Z,18.90
2023-03-11T09:43:54.569Z,19.01
2023-03-11T09:46:20.931Z,19.22
2023-03-11T09:48:47.396Z,19.31
2023-03-11T09:51:13.698Z,19.39
2023-03-11T09:53:40.006Z,19.43
2023-03-11T09:56:06.405Z,19.46
2023-03-11T09:58:32.719Z,19.51
2023-03-11T10:00:59.042Z,19.51
2023-03-11T10:03:25.741Z,19.47
2023-03-11T10:05:52.057Z,19.43
2023-03-11T10:08:18.426Z,19.40
2023-03-11T10:10:44.740Z,19.39
2023-03-11T10:13:10.952Z,19.38
2023-03-11T10:15:39.374Z,19.41
2023-03-11T10:18:05.854Z,19.38
2023-03-11T10:20:32.129Z,19.33
2023-03-11T10:22:58.327Z,19.28
2023-03-11T10:25:24.601Z,19.24
2023-03-11T10:27:50.873Z,19.24
2023-03-11T10:30:17.151Z,19.24
2023-03-11T10:32:43.545Z,19.23
2023-03-11T10:35:09.859Z,19.23
2023-03-11T10:37:48.826Z,19.18
2023-03-11T10:40:16.219Z,19.18
2023-03-11T10:42:42.637Z,19.16
2023-03-11T10:45:09.350Z,19.11
2023-03-11T10:47:38.005Z,19.13
2023-03-11T10:50:04.330Z,19.11
2023-03-11T10:52:30.658Z,19.03
2023-03-11T10:54:56.986Z,18.99
2023-03-11T10:57:25.490Z,18.99
2023-03-11T10:59:51.799Z,19.09
2023-03-11T11:02:18.113Z,19.01
2023-03-11T11:04:44.562Z,19.06
2023-03-11T11:07:10.896Z,19.06
2023-03-11T11:09:37.413Z,19.00
2023-03-11T11:12:03.707Z,18.95
2023-03-11T11:14:29.988Z,18.90
2023-03-11T11:16:56.450Z,18.87
2023-03-11T11:19:22.822Z,18.86
2023-03-11T11:21:49.236Z,18.88
2023-03-11T11:24:15.517Z,18.92
2023-03-11T11:26:41.962Z,18.90
2023-03-11T11:29:09.079Z,18.91
2023-03-11T11:31:35.525Z,18.90
2023-03-11T11:34:01.800Z,18.90
2023-03-11T11:36:28.027Z,18.94
2023-03-11T11:38:54.257Z,19.09
2023-03-11T11:41:20.509Z,19.07
2023-03-11T11:43:46.876Z,19.03
2023-03-11T11:46:13.270Z,18.97
2023-03-11T11:48:39.685Z,18.92
2023-03-11T11:51:06.012Z,18.87
2023-03-11T11:53:32.361Z,18.86
2023-03-11T11:55:58.646Z,18.87
2023-03-11T11:58:25.065Z,18.85
2023-03-11T12:00:51.354Z,18.89
2023-03-11T12:03:17.725Z,18.91
2023-03-11T12:05:44.256Z,18.86
2023-03-11T12:08:10.655Z,18.92
2023-03-11T12:10:36.967Z,19.02
2023-03-11T12:13:03.712Z,19.08
2023-03-11T12:15:30.298Z,19.07
2023-03-11T12:17:59.660Z,18.96
2023-03-11T12:20:26.041Z,18.91
2023-03-11T12:22:52.414Z,18.97
2023-03-11T12:25:21.206Z,18.93
2023-03-11T12:27:47.548Z,18.89
2023-03-11T12:30:14.140Z,18.86
2023-03-11T12:32:40.570Z,18.86
2023-03-11T12:35:06.990Z,18.91
2023-03-11T12:37:33.320Z,18.96
2023-03-11T12:39:59.663Z,18.97
2023-03-11T12:42:25.956Z,18.97
2023-03-11T12:44:53.360Z,18.99
2023-03-11T12:47:19.673Z,19.00
2023-03-11T12:49:46.215Z,19.01
2023-03-11T12:52:12.651Z,19.04
2023-03-11T12:54:38.963Z,19.01
2023-03-11T12:57:05.563Z,18.99
2023-03-11T12:59:31.995Z,18.96
2023-03-11T13:01:58.350Z,19.02
2023-03-11T13:04:24.823Z,19.08
2023-03-11T13:06:51.185Z,19.12
2023-03-11T13:09:17.633Z,19.10
2023-03-11T13:11:44.101Z,19.07
2023-03-11T13:14:10.442Z,19.05
2023-03-11T13:16:36.803Z,19.05
2023-03-11T13:19:03.272Z,19.03
2023-03-11T13:21:29.652Z,19.02
2023-03-11T13:23:56.166Z,19.05
2023-03-11T13:26:22.464Z,19.05
2023-03-11T13:28:48.754Z,19.01
2023-03-11T13:31:15.129Z,18.98
2023-03-11T13:33:41.473Z,18.96
2023-03-11T13:36:07.809Z,18.96
2023-03-11T13:38:34.169Z,18.95
2023-03-11T13:41:02.652Z,18.97
2023-03-11T13:43:28.990Z,18.98
2023-03-11T13:45:55.485Z,19.01
2023-03-11T13:48:21.842Z,19.00
2023-03-11T13:50:48.199Z,18.99
2023-03-11T13:53:14.568Z,18.98
2023-03-11T13:55:40.952Z,18.95
2023-03-11T13:58:07.263Z,18.93
2023-03-11T14:00:33.599Z,18.91
2023-03-11T14:03:00.020Z,18.92
2023-03-11T14:05:26.448Z,18.90
2023-03-11T14:07:52.905Z,18.89
2023-03-11T14:10:19.329Z,18.90
2023-03-11T14:12:46.184Z,18.89
2023-03-11T14:15:12.667Z,18.86
2023-03-11T14:17:39.213Z,18.84
2023-03-11T14:20:05.658Z,18.84
2023-03-11T14:22:32.124Z,18.82
2023-03-11T14:24:58.395Z,18.80
2023-03-11T14:27:24.806Z,18.81
2023-03-11T14:29:51.196Z,18.79
2023-03-11T14:32:17.632Z,18.78
2023-03-11T14:34:44.060Z,18.76
2023-03-11T14:37:10.387Z,18.76
2023-03-11T14:39:36.731Z,18.76
2023-03-11T14:42:03.291Z,18.78
2023-03-11T14:44:29.806Z,18.77
2023-03-11T14:46:56.192Z,18.77
2023-03-11T14:49:22.579Z,18.78
2023-03-11T14:51:49.000Z,18.77
2023-03-11T14:54:15.342Z,18.75
2023-03-11T14:56:41.803Z,18.73
2023-03-11T14:59:10.520Z,18.72
2023-03-11T15:01:37.961Z,18.71
2023-03-11T15:04:04.441Z,18.69
2023-03-11T15:06:30.902Z,18.68
2023-03-11T15:08:57.388Z,18.66
2023-03-11T15:11:23.810Z,18.67
2023-03-11T15:13:50.455Z,18.66
2023-03-11T15:16:16.827Z,18.67
2023-03-11T15:18:45.352Z,18.67
2023-03-11T15:21:11.684Z,18.66
2023-03-11T15:23:38.384Z,18.66
2023-03-11T15:26:04.793Z,18.66
2023-03-11T15:28:31.240Z,18.65
2023-03-11T15:30:57.690Z,18.63
2023-03-11T15:33:24.114Z,18.62
2023-03-11T15:35:50.605Z,18.60
2023-03-11T15:38:17.662Z,18.58
2023-03-11T15:40:46.019Z,18.57
2023-03-11T15:43:12.520Z,18.54
2023-03-11T15:45:38.842Z,18.53
2023-03-11T15:48:05.172Z,18.51
2023-03-11T15:50:46.672Z,18.50
2023-03-11T15:53:16.991Z,18.47
2023-03-11T15:55:44.247Z,18.45
2023-03-11T15:58:10.530Z,18.43
2023-03-11T16:00:36.873Z,18.41
2023-03-11T16:03:03.260Z,18.39
2023-03-11T16:05:31.658Z,18.38
2023-03-11T16:07:57.981Z,18.37
2023-03-11T16:10:24.479Z,18.37
2023-03-11T16:12:50.852Z,18.36
2023-03-11T16:15:17.338Z,18.36
2023-03-11T16:17:49.652Z,18.38
2023-03-11T16:20:16.647Z,18.38
2023-03-11T16:22:43.097Z,18.40
2023-03-11T16:25:09.340Z,18.41
2023-03-11T16:27:36.226Z,18.41
2023-03-11T16:30:02.979Z,18.42
2023-03-11T16:32:29.358Z,18.44
2023-03-11T16:34:55.772Z,18.44
2023-03-11T16:37:22.056Z,18.44
2023-03-11T16:39:48.356Z,18.45
2023-03-11T16:42:14.709Z,18.46
2023-03-11T16:44:41.069Z,18.48
2023-03-11T16:47:07.432Z,18.48
2023-03-11T16:49:33.763Z,18.49
2023-03-11T16:52:00.111Z,18.49
2023-03-11T16:54:26.489Z,18.49
2023-03-11T16:56:52.767Z,18.49
2023-03-11T16:59:19.171Z,18.49
2023-03-11T17:01:45.535Z,18.49
2023-03-11T17:04:11.894Z,18.49
2023-03-11T17:06:38.434Z,18.47
2023-03-11T17:09:04.722Z,18.47
2023-03-11T17:11:31.051Z,18.47
2023-03-11T17:14:10.095Z,18.46
2023-03-11T17:16:43.449Z,18.44
2023-03-11T17:19:09.796Z,18.41
2023-03-11T17:21:36.309Z,18.39
2023-03-11T17:24:02.717Z,18.38
2023-03-11T17:26:29.107Z,18.36
2023-03-11T17:28:56.567Z,18.35
2023-03-11T17:31:22.859Z,18.32
2023-03-11T17:33:49.285Z,18.33
2023-03-11T17:36:15.591Z,18.32
2023-03-11T17:38:42.014Z,18.30
2023-03-11T17:41:08.386Z,18.28
2023-03-11T17:43:34.830Z,18.27
2023-03-11T17:46:01.130Z,18.25
2023-03-11T17:48:27.965Z,18.23
2023-03-11T17:50:54.278Z,18.21
2023-03-11T17:53:22.407Z,18.19
2023-03-11T17:55:48.720Z,18.17
2023-03-11T17:58:15.147Z,18.13
2023-03-11T18:00:41.768Z,18.11
2023-03-11T18:03:08.195Z,18.11
2023-03-11T18:05:34.705Z,18.03
2023-03-11T18:08:01.059Z,18.11
2023-03-11T18:10:27.364Z,18.16
2023-03-11T18:12:53.753Z,18.32
2023-03-11T18:15:20.149Z,18.46
2023-03-11T18:17:46.627Z,18.59
2023-03-11T18:20:12.958Z,18.71
2023-03-11T18:22:42.060Z,18.85
2023-03-11T18:25:10.697Z,18.98
2023-03-11T18:27:37.196Z,19.10
2023-03-11T18:30:13.477Z,19.22
2023-03-11T18:32:39.954Z,19.34
2023-03-11T18:35:06.358Z,19.44
2023-03-11T18:37:32.698Z,19.52
2023-03-11T18:39:58.943Z,19.58
2023-03-11T18:42:25.275Z,19.64
2023-03-11T18:44:51.637Z,19.67
2023-03-11T18:47:18.050Z,19.72
2023-03-11T18:49:44.349Z,19.77
2023-03-11T18:52:10.671Z,19.84
2023-03-11T18:54:37.034Z,19.88
2023-03-11T18:57:03.297Z,19.96
2023-03-11T18:59:29.599Z,20.00
2023-03-11T19:01:56.223Z,20.01
2023-03-11T19:04:22.660Z,20.01
2023-03-11T19:06:49.016Z,20.00
2023-03-11T19:09:15.398Z,19.97
2023-03-11T19:11:41.789Z,19.95
2023-03-11T19:14:08.196Z,19.91
2023-03-11T19:16:34.516Z,19.85
2023-03-11T19:19:00.872Z,19.78
2023-03-11T19:21:27.147Z,19.69
2023-03-11T19:23:53.661Z,19.62
2023-03-11T19:26:21.028Z,19.57
2023-03-11T19:28:50.289Z,19.54
2023-03-11T19:31:16.549Z,19.54
2023-03-11T19:33:42.837Z,19.49
2023-03-11T19:36:09.441Z,19.44
2023-03-11T19:38:35.730Z,19.43
2023-03-11T19:41:02.044Z,19.40
2023-03-11T19:43:28.318Z,19.36
2023-03-11T19:45:54.776Z,19.33
2023-03-11T19:48:21.161Z,19.30
2023-03-11T19:50:47.631Z,19.26
2023-03-11T19:53:14.116Z,19.23
2023-03-11T19:55:40.504Z,19.19
2023-03-11T19:58:06.998Z,19.15
2023-03-11T20:00:33.432Z,19.12
2023-03-11T20:02:59.809Z,19.08
2023-03-11T20:05:26.245Z,19.04
2023-03-11T20:07:52.606Z,19.01
2023-03-11T20:10:20.872Z,18.97
2023-03-11T20:13:01.501Z,18.92
2023-03-11T20:15:28.701Z,18.87
2023-03-11T20:17:55.050Z,18.83
2023-03-11T20:20:21.516Z,18.79
2023-03-11T20:22:48.071Z,18.77
2023-03-11T20:25:14.469Z,18.73
2023-03-11T20:27:41.043Z,18.72
2023-03-11T20:30:07.531Z,18.71
2023-03-11T20:32:33.941Z,18.77
2023-03-11T20:35:00.460Z,18.88
2023-03-11T20:37:27.034Z,18.96
2023-03-11T20:39:53.687Z,19.06
2023-03-11T20:42:20.103Z,19.20
2023-03-11T20:44:46.741Z,19.31
2023-03-11T20:47:13.353Z,19.40
2023-03-11T20:49:42.785Z,19.55
2023-03-11T20:52:09.116Z,19.67
2023-03-11T20:54:35.604Z,19.76
2023-03-11T20:57:01.963Z,19.84
2023-03-11T20:59:28.428Z,19.91
2023-03-11T21:01:54.823Z,19.96
2023-03-11T21:04:21.425Z,19.96
2023-03-11T21:06:47.744Z,19.95
2023-03-11T21:09:14.129Z,19.94
2023-03-11T21:11:40.469Z,19.90
2023-03-11T21:14:06.862Z,19.86
2023-03-11T21:16:33.396Z,19.82
2023-03-11T21:18:59.970Z,19.77
2023-03-11T21:21:26.688Z,19.69
2023-03-11T21:23:53.189Z,19.63
2023-03-11T21:26:19.586Z,19.60
2023-03-11T21:28:46.326Z,19.55
2023-03-11T21:31:13.089Z,19.50
2023-03-11T21:33:41.502Z,19.42
2023-03-11T21:36:08.006Z,19.30
2023-03-11T21:38:34.627Z,19.16
2023-03-11T21:41:02.345Z,19.00
2023-03-11T21:43:31.340Z,18.84
2023-03-11T21:45:57.844Z,18.71
2023-03-11T21:48:24.585Z,18.56
2023-03-11T21:50:51.115Z,18.44
2023-03-11T21:53:17.735Z,18.30
2023-03-11T21:55:44.268Z,18.16
2023-03-11T21:58:10.795Z,18.02
2023-03-11T22:00:37.435Z,17.91
2023-03-11T22:03:04.095Z,17.79
2023-03-11T22:05:30.576Z,17.67
2023-03-11T22:07:57.065Z,17.56
2023-03-11T22:10:26.529Z,17.46
2023-03-11T22:12:53.183Z,17.35
2023-03-11T22:15:20.970Z,17.23
2023-03-11T22:17:47.554Z,17.14
2023-03-11T22:20:14.020Z,17.03
2023-03-11T22:22:40.490Z,16.94
2023-03-11T22:25:07.243Z,16.84
2023-03-11T22:27:33.660Z,16.73
2023-03-11T22:30:00.104Z,16.62
2023-03-11T22:32:26.657Z,16.51
2023-03-11T22:34:53.226Z,16.41
2023-03-11T22:37:19.575Z,16.33
2023-03-11T22:39:46.484Z,16.24
2023-03-11T22:42:13.010Z,16.15
2023-03-11T22:44:39.384Z,16.07
2023-03-11T22:47:07.259Z,15.95
2023-03-11T22:49:33.701Z,15.87
2023-03-11T22:52:00.217Z,15.79
2023-03-11T22:54:26.784Z,15.71
2023-03-11T22:56:53.126Z,15.63
2023-03-11T22:59:19.552Z,15.57
2023-03-11T23:01:45.968Z,15.50
2023-03-11T23:04:12.363Z,15.42
2023-03-11T23:06:38.767Z,15.35
2023-03-11T23:09:05.328Z,15.28
2023-03-11T23:11:33.847Z,15.23
2023-03-11T23:14:00.354Z,15.16
2023-03-11T23:16:26.815Z,15.10
2023-03-11T23:18:53.235Z,15.02
2023-03-11T23:21:19.599Z,14.95
2023-03-11T23:23:46.071Z,14.90
2023-03-11T23:26:12.745Z,14.84
2023-03-11T23:28:39.165Z,14.78
2023-03-11T23:31:05.435Z,14.71
2023-03-11T23:33:31.852Z,14.66
2023-03-11T23:35:58.243Z,14.61
2023-03-11T23:38:24.658Z,14.55
2023-03-11T23:40:51.140Z,14.49
2023-03-11T23:43:17.613Z,14.45
2023-03-11T23:45:46.860Z,14.41
2023-03-11T23:48:13.298Z,14.37
2023-03-11T23:50:39.729Z,14.33
2023-03-11T23:53:06.153Z,14.30
2023-03-11T23:55:32.672Z,14.27
2023-03-11T23:57:59.124Z,14.25
